Terminal Aerodrome Forecast
Issued by NWS Cleveland, OH

Home | Current Version | Previous Version | Text Only | Print | Product List | Glossary Off
Versions: 1 2 3 4 5 6 7 8 9 10 11 12 13 14 15 16 17 18 19 20

000
FTUS41 KCLE 222001 AAA
TAFYNG
TAF AMD
KYNG 222001Z 2220/2318 20008KT 5SM BR OVC010
      TEMPO 2220/2221 3SM BR OVC006
     FM231400 22010KT 3SM BR OVC004=

USA.gov is the U.S. government's official web portal to all federal, state and local government web resources and services.